Tropical Cyclones
[Index]
Main Index Home Page Stock Weather Photos Extreme Storms Discussion Storm News and Storm Chasing Reports Tropical Cyclones / Hurricanes / Typhoons Weather Data and Links Wild Fires / Bushfires Weather Observation Techniques Weather Picture Catalogue Tornado Pictures and Reports Stock Video Footage and DVDs for sale
Season 2010-2011 Tropical Cyclone ANGGREK Track Map
Season 2010-2011 Summaries: [BoM-AU] [JTWC-AU] [JTWC-SIO] [JTWC-SPAC] [JTWC-SH]
<<- Previous TC | JTWC 2010-2011 Season | Next TC ->>

click for intensity scale information  Lat/long Grid: Show Hide

 Date Labels: Show Hide

Joint Typhoon Warning Centre Cyclone Data

Name: ANGGREK

29 Oct 2010 06:00 UTC to 06 Nov 2010 12:00 UTC

    date/time    lat    long     hPa   cat  kts
2010-10-29 06    7.6    97.5    1007         20          
2010-10-29 12    7.4    97.1    1004         25          
2010-10-29 18    7.5    96.6    1000         30          
2010-10-30 00    7.6    96.2    1000         30          
2010-10-30 06    7.7    95.9    1000         30          
2010-10-30 12    7.8    95.7    1000         30          
2010-10-30 18    8.1    95.8     996         35          
2010-10-31 00    8.4    96.1     993    1    40          
2010-10-31 06    8.7    96.4     993    1    40          
2010-10-31 12    9.0    96.7     993    1    40          
2010-10-31 18    9.4    97.0     989    1    45          
2010-11-01 00    9.9    97.4     985    1    50          
2010-11-01 00    9.9    97.4     985    1    50          
2010-11-01 06   10.5    97.8     985    1    50          
2010-11-01 12   11.1    98.0     985    1    50          
2010-11-01 18   11.7    98.1     982    2    55          
2010-11-01 18   11.7    98.1     982    2    55          
2010-11-02 00   12.2    98.1     982    2    55          
2010-11-02 00   12.2    98.1     982    2    55          
2010-11-02 06   12.6    98.0     982    2    55          
2010-11-02 06   12.6    98.0     982    2    55          
2010-11-02 12   13.1    97.9     982    2    55          
2010-11-02 12   13.1    97.9     982    2    55          
2010-11-02 18   13.5    97.8     982    2    55          
2010-11-03 00   13.9    97.6     985    1    50          
2010-11-03 00   13.9    97.6     985    1    50          
2010-11-03 06   14.3    97.3     985    1    50          
2010-11-03 12   14.9    96.9     989    1    45          
2010-11-03 18   15.2    96.2     993    1    40          
2010-11-04 00   15.3    95.4     996         35          
2010-11-04 06   15.2    94.5    1000         30          
2010-11-04 12   15.2    93.7    1000         30          
2010-11-04 18   15.3    92.8    1000         30          
2010-11-05 00   15.5    91.7    1000         30          
2010-11-05 06   15.9    90.5    1004         25          
2010-11-05 12   16.4    89.7    1007         20          
2010-11-05 18   17.0    89.2    1007         20          
2010-11-06 00   17.9    88.8    1010         15          
2010-11-06 06   19.6    88.8    1010         15          
2010-11-06 12   21.5    89.4    1010         15          
Winds are 1-min average.

Tropical cyclone tracks developed by Michael Bath using data from the Joint Typhoon Warning Centre Best Tracks and Google Maps.


[Australian Severe Weather index] [Copyright Notice] [Email Contacts] [Search This Site] [Privacy Policy]
Document: tropical_cyclone_anggrek.htm Updated: 28 June 2017